Data for 11/02/2013

Time Sea-Level Adjusted Pressure Absolute Pressure Temperature Relative Humidity Dew Point Precipitation   
(mb) (inHg) (mb) (inHg) (C) (F) (%) (C) (F) (mm) (in)
00:05 1022 30.18 852 25.16 -1.7 28.9 75 -5.5 22.1 0 0
00:10 1022 30.18 852 25.16 -2.1 28.3 78 -5.4 22.3 0 0
00:15 1022 30.18 852 25.16 -2.8 26.9 82 -5.5 22 0 0
00:20 1022 30.18 852 25.16 -2.8 26.9 79 -5.9 21.3 0 0
00:25 1022 30.18 852 25.16 -2.7 27.1 79 -5.9 21.4 0 0
00:30 1022 30.18 851 25.13 -3.2 26.3 81 -5.9 21.3 0 0
00:35 1022 30.18 851 25.13 -3.6 25.5 84 -5.9 21.4 0 0
00:40 1022 30.18 851 25.13 -3.3 26 81 -6.2 20.9 0 0
00:45 1022 30.18 851 25.13 -3.1 26.5 81 -5.8 21.5 0 0
00:50 1022 30.18 851 25.13 -3 26.5 82 -5.8 21.6 0 0
00:55 1022 30.18 851 25.13 -2.8 26.9 80 -5.8 21.5 0 0
01:00 1022 30.18 851 25.13 -2.5 27.5 81 -5.3 22.5 0 0
01:05 1022 30.18 851 25.13 -1.9 28.6 77 -5.4 22.3 0 0
01:10 1022 30.18 851 25.13 -1.4 29.5 75 -5.2 22.7 0 0
01:15 1022 30.18 851 25.13 -1 30.2 74 -5.1 22.8 0 0
01:20 1022 30.18 851 25.13 -0.8 30.5 74 -5 23 0 0
01:25 1022 30.18 851 25.13 -0.8 30.5 74 -4.8 23.3 0 0
01:30 1022 30.18 851 25.13 -0.8 30.5 74 -4.9 23.1 0 0
01:35 1022 30.18 851 25.13 -1 30.1 75 -4.8 23.3 0 0
01:40 1022 30.18 851 25.13 -1.4 29.4 77 -5 23.1 0 0
01:45 1022 30.18 851 25.13 -1.7 29 78 -5 23 0 0
01:50 1022 30.18 851 25.13 -2.3 27.9 81 -5.2 22.7 0 0
01:55 1022 30.18 851 25.13 -2.5 27.5 80 -5.5 22.1 0 0
02:00 1022 30.18 851 25.13 -2.8 27 81 -5.5 22 0 0
02:05 1021 30.15 851 25.13 -2.6 27.4 81 -5.4 22.4 0 0
02:10 1021 30.15 851 25.13 -2.6 27.3 80 -5.5 22 0 0
02:15 1021 30.15 851 25.13 -2.4 27.6 80 -5.4 22.2 0 0
02:20 1021 30.15 851 25.13 -2 28.3 78 -5.4 22.4 0 0
02:25 1021 30.15 851 25.13 -2.6 27.3 82 -5.2 22.6 0 0
02:30 1021 30.15 850 25.1 -2.8 27 83 -5.3 22.5 0 0
02:35 1021 30.15 850 25.1 -2.7 27.1 84 -5.1 22.8 0 0
02:40 1021 30.15 850 25.1 -2.6 27.3 84 -5 23 0 0
02:45 1021 30.15 850 25.1 -2.6 27.2 84 -5 22.9 0 0
02:50 1021 30.15 850 25.1 -2.3 27.9 80 -5.3 22.5 0 0
02:55 1021 30.15 850 25.1 -1.8 28.7 77 -5.3 22.4 0 0
03:00 1021 30.15 850 25.1 -1.2 29.8 77 -4.8 23.3 0 0
03:05 1021 30.15 850 25.1 -1.2 29.9 77 -4.8 23.4 0 0
03:10 1021 30.15 850 25.1 -1.4 29.5 78 -4.7 23.6 0 0
03:15 1021 30.15 850 25.1 -1.6 29.2 80 -4.6 23.7 0 0
03:20 1021 30.15 850 25.1 -1.7 28.9 80 -4.7 23.5 0 0
03:25 1020 30.12 849 25.07 -1.6 29.2 78 -4.9 23.2 0 0
03:30 1020 30.12 849 25.07 -1.4 29.5 79 -4.6 23.8 0 0
03:35 1020 30.12 849 25.07 -1.3 29.6 78 -4.6 23.7 0 0
03:40 1020 30.12 849 25.07 -1 30.1 75 -5 23.1 0 0
03:45 1020 30.12 849 25.07 -0.5 31.2 72 -4.8 23.3 0 0
03:50 1020 30.12 849 25.07 -0.2 31.6 70 -5 23.1 0 0
03:55 1019 30.09 849 25.07 -0.2 31.6 74 -4.4 24.2 0 0
04:00 1019 30.09 848 25.04 -0.8 30.6 77 -4.4 24.2 0 0
04:05 1019 30.09 848 25.04 -1 30.3 77 -4.5 23.9 0 0
04:10 1019 30.09 848 25.04 -0.9 30.3 77 -4.5 23.8 0 0
04:15 1019 30.09 848 25.04 -0.9 30.3 77 -4.5 23.9 0 0
04:20 1019 30.09 848 25.04 -1 30.3 77 -4.5 23.9 0 0
04:25 1019 30.09 848 25.04 -1.2 29.8 80 -4.3 24.3 0 0
04:30 1019 30.09 848 25.04 -1.4 29.4 79 -4.5 23.8 0 0
04:35 1019 30.09 848 25.04 -1.4 29.5 79 -4.6 23.7 0 0
04:40 1019 30.09 848 25.04 -1.2 29.8 77 -4.7 23.6 0 0
04:45 1019 30.09 848 25.04 -1 30.1 77 -4.6 23.7 0 0
04:50 1019 30.09 848 25.04 -1.1 30 78 -4.4 24.1 0 0
04:55 1019 30.09 848 25.04 -1.2 29.9 78 -4.5 23.9 0 0
05:00 1019 30.09 848 25.04 -1.2 29.8 78 -4.6 23.7 0 0
05:05 1019 30.09 848 25.04 -1.3 29.7 80 -4.3 24.2 0 0
05:10 1019 30.09 848 25.04 -1.3 29.6 77 -4.8 23.3 0 0
05:15 1018 30.06 848 25.04 -1.2 29.8 77 -4.7 23.6 0 0
05:20 1018 30.06 848 25.04 -1.1 30.1 76 -4.8 23.3 0 0
05:25 1018 30.06 848 25.04 -0.8 30.5 75 -4.8 23.4 0 0
05:30 1018 30.06 847 25.01 -0.8 30.5 74 -4.9 23.2 0 0
05:35 1018 30.06 847 25.01 -0.9 30.4 75 -4.8 23.3 0 0
05:40 1018 30.06 847 25.01 -0.7 30.7 74 -4.9 23.2 0 0
05:45 1018 30.06 847 25.01 -0.8 30.5 77 -4.4 24 0 0
05:50 1018 30.06 847 25.01 -1.3 29.7 80 -4.3 24.3 0 0
05:55 1018 30.06 847 25.01 -1.5 29.4 81 -4.3 24.3 0 0
06:00 1018 30.06 847 25.01 -1.4 29.5 82 -4.1 24.7 0 0
06:05 1018 30.06 847 25.01 -1.3 29.6 81 -4.1 24.6 0 0
06:10 1018 30.06 847 25.01 -1 30.2 80 -4 24.7 0 0
06:15 1018 30.06 847 25.01 -0.9 30.4 80 -4 24.8 0 0
06:20 1018 30.06 847 25.01 -0.8 30.6 80 -3.9 25.1 0 0
06:25 1018 30.06 847 25.01 -0.9 30.4 81 -3.7 25.3 0 0
06:30 1018 30.06 847 25.01 -0.9 30.4 80 -4 24.9 0 0
06:35 1018 30.06 847 25.01 -0.8 30.5 79 -4 24.9 0 0
06:40 1018 30.06 847 25.01 -0.9 30.4 80 -3.8 25.1 0 0
06:45 1018 30.06 847 25.01 -1 30.3 79 -4.1 24.6 0 0
06:50 1018 30.06 847 25.01 -1.1 30 82 -3.9 25 0 0
06:55 1018 30.06 847 25.01 -1.6 29.2 83 -4.1 24.7 0 0
07:00 1017 30.03 847 25.01 -1.7 29 83 -4.2 24.5 0 0
07:05 1017 30.03 846 24.98 -1.8 28.8 82 -4.4 24.1 0 0
07:10 1017 30.03 846 24.98 -1.6 29.1 81 -4.4 24.1 0 0
07:15 1017 30.03 846 24.98 -1.8 28.7 81 -4.6 23.7 0 0
07:20 1017 30.03 846 24.98 -2 28.4 80 -5 23.1 0 0
07:25 1017 30.03 846 24.98 -2.7 27.1 84 -5.1 22.9 0 0
07:30 1017 30.03 846 24.98 -3.3 26 85 -5.4 22.2 0 0
07:35 1017 30.03 846 24.98 -3.7 25.3 86 -5.8 21.6 0 0
07:40 1017 30.03 846 24.98 -3.7 25.4 84 -6 21.2 0 0
07:45 1017 30.03 846 24.98 -3.7 25.3 83 -6.1 21 0 0
07:50 1017 30.03 846 24.98 -4.1 24.5 86 -6.2 20.9 0 0
07:55 1016 30 846 24.98 -4 24.8 83 -6.4 20.4 0 0
08:00 1016 30 846 24.98 -4 24.7 85 -6.2 20.9 0 0
08:05 1016 30 846 24.98 -3.9 24.9 84 -6.3 20.7 0 0
08:10 1016 30 846 24.98 -3.8 25.2 82 -6.4 20.5 0 0
08:15 1016 30 845 24.95 -3.9 25 81 -6.7 20 0 0
08:20 1016 30 845 24.95 -3 26.6 77 -6.5 20.4 0 0
08:25 1016 30 845 24.95 -3.1 26.4 80 -6.1 21.1 0 0
08:30 1016 30 845 24.95 -2.9 26.7 78 -6.2 20.8 0 0
08:35 1016 30 845 24.95 -2.7 27.2 79 -5.7 21.7 0 0
08:40 1016 30 845 24.95 -2.5 27.4 80 -5.6 21.9 0 0
08:45 1016 30 845 24.95 -2.1 28.2 80 -5.1 22.9 0 0
08:50 1016 30 845 24.95 -1.5 29.3 78 -4.8 23.4 0 0
08:55 1016 30 845 24.95 -0.9 30.4 76 -4.6 23.6 0 0
09:00 1016 30 845 24.95 -0.1 31.8 74 -4.2 24.5 0 0
09:05 1016 30 845 24.95 0.7 33.2 69 -4.3 24.2 0 0
09:10 1016 30 845 24.95 1.4 34.5 65 -4.6 23.8 0 0
09:15 1016 30 845 24.95 1.8 35.3 63 -4.5 23.8 0 0
09:20 1016 30 845 24.95 2.1 35.8 60 -4.9 23.3 0 0
09:25 1016 30 845 24.95 2.3 36.1 59 -4.9 23.1 0 0
09:30 1016 30 845 24.95 2.5 36.5 59 -4.6 23.7 0 0
09:35 1016 30 845 24.95 2.7 36.9 61 -4.1 24.6 0 0
09:40 1016 30 845 24.95 3.2 37.8 59 -4.1 24.7 0 0
09:45 1015 29.97 845 24.95 2.9 37.2 61 -3.8 25.1 0 0
09:50 1015 29.97 845 24.95 3.1 37.5 62 -3.5 25.7 0 0
09:55 1015 29.97 844 24.92 3.8 38.8 55 -4.5 23.8 0 0
10:00 1015 29.97 844 24.92 4.4 39.9 53 -4.3 24.2 0 0
10:05 1015 29.97 844 24.92 4.5 40.1 54 -4.1 24.6 0 0
10:10 1015 29.97 844 24.92 5.1 41.1 52 -4.1 24.7 0 0
10:15 1015 29.97 844 24.92 5.5 42 52 -3.6 25.6 0 0
10:20 1015 29.97 844 24.92 5.7 42.2 50 -3.9 24.9 0 0
10:25 1015 29.97 844 24.92 6 42.8 49 -3.8 25.2 0 0
10:30 1015 29.97 844 24.92 6.8 44.2 47 -3.9 25 0 0
10:35 1014 29.94 844 24.92 7.6 45.6 44 -3.8 25.1 0 0
10:40 1014 29.94 844 24.92 7.9 46.3 45 -3.3 26.1 0 0
10:45 1014 29.94 844 24.92 8.3 47 44 -3.3 26.1 0 0
10:50 1014 29.94 843 24.89 8.4 47.2 44 -3.2 26.3 0 0
10:55 1014 29.94 843 24.89 8.6 47.4 42 -3.7 25.3 0 0
11:00 1014 29.94 843 24.89 8.4 47.2 43 -3.4 25.9 0 0
11:05 1014 29.94 843 24.89 8.6 47.6 42 -3.6 25.5 0 0
11:10 1014 29.94 843 24.89 8.9 48.1 41 -3.7 25.4 0 0
11:15 1013 29.91 843 24.89 9.4 48.9 41 -3.2 26.2 0 0
11:20 1013 29.91 843 24.89 9.5 49.1 41 -3 26.7 0 0
11:25 1013 29.91 842 24.86 9.4 48.8 41 -3.3 26.1 0 0
11:30 1013 29.91 842 24.86 9.5 49 43 -2.6 27.4 0 0
11:35 1013 29.91 842 24.86 9.6 49.3 38 -3.9 25 0 0
11:40 1013 29.91 842 24.86 10.2 50.3 36 -4.4 24.1 0 0
11:45 1013 29.91 842 24.86 10.6 51.1 33 -5.1 22.8 0 0
11:50 1013 29.91 842 24.86 10.5 50.9 35 -4.3 24.3 0 0
11:55 1013 29.91 842 24.86 10.3 50.5 36 -4.2 24.4 0 0
12:00 1013 29.91 842 24.86 10.3 50.6 42 -2 28.4 0 0
12:05 1013 29.91 842 24.86 9.9 49.9 41 -2.8 26.9 0 0
12:10 1012 29.88 842 24.86 10 49.9 43 -2 28.4 0 0
12:15 1012 29.88 842 24.86 10 50 35 -4.8 23.3 0 0
12:20 1012 29.88 841 24.83 10.1 50.2 33 -5.5 22 0 0
12:25 1012 29.88 841 24.83 10.4 50.7 34 -4.9 23.1 0 0
12:30 1012 29.88 841 24.83 10.8 51.4 33 -5 23.1 0 0
12:35 1012 29.88 841 24.83 10.7 51.3 35 -4.2 24.4 0 0
12:40 1012 29.88 841 24.83 10.7 51.2 32 -5.4 22.2 0 0
12:45 1011 29.85 841 24.83 11 51.7 35 -4.1 24.7 0 0
12:50 1011 29.85 841 24.83 10.8 51.5 33 -5 23.1 0 0
12:55 1011 29.85 841 24.83 10.9 51.6 33 -4.5 23.8 0 0
13:00 1011 29.85 841 24.83 11 51.7 36 -3.6 25.5 0 0
13:05 1011 29.85 840 24.81 10.9 51.6 41 -1.8 28.8 0 0
13:10 1011 29.85 840 24.81 10.7 51.3 39 -2.7 27.1 0 0
13:15 1011 29.85 840 24.81 11 51.8 35 -3.8 25.1 0 0
13:20 1011 29.85 840 24.81 11.3 52.3 33 -4.3 24.2 0 0
13:25 1011 29.85 840 24.81 11.4 52.5 32 -4.8 23.4 0 0
13:30 1010 29.83 840 24.81 11.6 52.9 33 -4 24.7 0 0
13:35 1010 29.83 839 24.78 11.7 53 30 -5.3 22.5 0 0
13:40 1010 29.83 839 24.78 12.2 54 29 -5.1 22.8 0 0
13:45 1010 29.83 839 24.78 12.8 55.1 28 -5.4 22.3 0 0
13:50 1010 29.83 839 24.78 13 55.4 28 -5.1 22.8 0 0
13:55 1010 29.83 839 24.78 13.2 55.7 28 -4.7 23.6 0 0
14:00 1009 29.8 839 24.78 13.2 55.8 30 -4 24.8 0 0
14:05 1009 29.8 839 24.78 13 55.4 30 -4.2 24.4 0 0
14:10 1009 29.8 839 24.78 12.9 55.2 30 -4.3 24.2 0 0
14:15 1009 29.8 839 24.78 12.8 55 30 -4.2 24.5 0 0
14:20 1009 29.8 838 24.75 12.6 54.7 33 -3.2 26.2 0 0
14:25 1009 29.8 838 24.75 12.5 54.4 36 -2 28.4 0 0
14:30 1009 29.8 838 24.75 12.3 54.2 36 -2.2 28 0 0
14:35 1009 29.8 838 24.75 12.2 54 40 -1 30.1 0 0
14:40 1009 29.8 838 24.75 12.1 53.7 39 -1.5 29.2 0 0
14:45 1009 29.8 838 24.75 11.7 53.1 42 -0.6 30.9 0 0
14:50 1009 29.8 838 24.75 11.5 52.7 43 -0.5 31 0 0
14:55 1009 29.8 838 24.75 11.2 52.2 42 -1.2 29.9 0 0
15:00 1009 29.8 838 24.75 11.1 52 40 -2.1 28.2 0 0
15:05 1009 29.8 838 24.75 11.2 52.1 40 -1.7 28.9 0 0
15:10 1009 29.8 838 24.75 11.3 52.4 37 -2.9 26.9 0 0
15:15 1008 29.77 838 24.75 11.4 52.6 37 -2.7 27.1 0 0
15:20 1008 29.77 838 24.75 12 53.6 33 -3.8 25.1 0 0
15:25 1008 29.77 838 24.75 12.1 53.9 33 -3.4 25.8 0 0
15:30 1008 29.77 837 24.72 12 53.6 36 -2.4 27.6 0 0
15:35 1008 29.77 837 24.72 11.8 53.2 38 -1.9 28.6 0 0
15:40 1008 29.77 837 24.72 11.6 52.9 39 -1.8 28.7 0 0
15:45 1008 29.77 837 24.72 11.5 52.7 38 -2.4 27.6 0 0
15:50 1008 29.77 837 24.72 11.4 52.5 38 -2.4 27.7 0 0
15:55 1008 29.77 837 24.72 11.4 52.5 39 -2.1 28.2 0 0
16:00 1008 29.77 837 24.72 11.4 52.4 39 -2.1 28.3 0 0
16:05 1008 29.77 837 24.72 11.4 52.5 40 -1.8 28.7 0 0
16:10 1008 29.77 837 24.72 11.4 52.5 37 -2.9 26.7 0 0
16:15 1008 29.77 837 24.72 11.4 52.6 37 -2.6 27.3 0 0
16:20 1008 29.77 837 24.72 11.4 52.6 40 -1.5 29.3 0 0
16:25 1008 29.77 837 24.72 11.4 52.4 38 -2.5 27.4 0 0
16:30 1008 29.77 837 24.72 12 53.7 30 -4.8 23.4 0 0
16:35 1008 29.77 837 24.72 12.7 54.9 32 -3.3 26 0 0
16:40 1008 29.77 837 24.72 12.3 54.2 31 -4.1 24.6 0 0
16:45 1008 29.77 837 24.72 12.4 54.4 31 -4.1 24.6 0 0
16:50 1008 29.77 837 24.72 12.3 54.1 32 -4 24.7 0 0
16:55 1008 29.77 837 24.72 12.2 53.9 31 -4.2 24.4 0 0
17:00 1008 29.77 837 24.72 12.2 54 32 -4 24.7 0 0
17:05 1008 29.77 837 24.72 12.1 53.7 31 -4.4 24 0 0
17:10 1008 29.77 837 24.72 12 53.6 32 -4 24.7 0 0
17:15 1008 29.77 837 24.72 12 53.6 32 -4.2 24.4 0 0
17:20 1008 29.77 837 24.72 12 53.6 30 -4.8 23.4 0 0
17:25 1008 29.77 837 24.72 11.7 53.1 32 -4.5 23.8 0 0
17:30 1008 29.77 837 24.72 11.6 52.9 33 -4.1 24.6 0 0
17:35 1008 29.77 837 24.72 11.8 53.3 33 -3.9 24.9 0 0
17:40 1008 29.77 837 24.72 11.6 52.8 33 -4.3 24.3 0 0
17:45 1008 29.77 837 24.72 11.2 52.2 34 -4.1 24.6 0 0
17:50 1008 29.77 837 24.72 10.9 51.7 34 -4.4 24.1 0 0
17:55 1008 29.77 837 24.72 10.9 51.6 37 -3.3 26 0 0
18:00 1008 29.77 837 24.72 10.5 50.8 38 -3.1 26.4 0 0
18:05 1008 29.77 837 24.72 10.1 50.2 36 -4.2 24.4 0 0
18:10 1008 29.77 837 24.72 10 49.9 37 -4.1 24.5 0 0
18:15 1008 29.77 837 24.72 10 49.9 36 -4.4 24.1 0 0
18:20 1007 29.74 837 24.72 10 50 35 -4.7 23.5 0 0
18:25 1007 29.74 836 24.69 10.2 50.4 36 -4.2 24.4 0 0
18:30 1007 29.74 836 24.69 10.1 50.2 36 -4.5 24 0 0
18:35 1007 29.74 836 24.69 10 50 35 -4.6 23.8 0 0
18:40 1007 29.74 836 24.69 10.2 50.3 33 -5.3 22.4 0 0
18:45 1007 29.74 836 24.69 10.5 50.9 33 -5.1 22.9 0 0
18:50 1007 29.74 836 24.69 10.7 51.2 33 -4.9 23.1 0 0
18:55 1007 29.74 836 24.69 10.9 51.6 33 -4.9 23.2 0 0
19:00 1007 29.74 836 24.69 10.7 51.2 34 -4.6 23.6 0 0
19:05 1007 29.74 836 24.69 10.5 50.9 34 -4.8 23.4 0 0
19:10 1007 29.74 836 24.69 10.6 51 36 -3.8 25.2 0 0
19:15 1007 29.74 836 24.69 10 50 39 -3.2 26.2 0 0
19:20 1007 29.74 836 24.69 9.7 49.5 38 -3.7 25.3 0 0
19:25 1007 29.74 836 24.69 9.5 49.2 40 -3.5 25.6 0 0
19:30 1007 29.74 837 24.72 9.3 48.7 43 -2.7 27.1 0 0
19:35 1007 29.74 837 24.72 8.8 47.9 46 -2.3 27.9 0 0
19:40 1007 29.74 837 24.72 8.3 47 47 -2.4 27.7 0 0
19:45 1007 29.74 837 24.72 8 46.3 46 -3 26.6 0 0
19:50 1007 29.74 837 24.72 8 46.4 43 -3.8 25.2 0 0
19:55 1007 29.74 837 24.72 8.4 47 46 -2.6 27.3 0 0
20:00 1007 29.74 837 24.72 8.3 47 42 -3.8 25.1 0 0
20:05 1008 29.77 837 24.72 9 48.3 43 -2.7 27.1 0 0
20:10 1007 29.74 837 24.72 9.5 49.1 47 -1.2 29.9 0 0
20:15 1007 29.74 837 24.72 9.3 48.8 49 -0.8 30.5 0 0
20:20 1007 29.74 837 24.72 9 48.2 51 -0.5 31.1 0 0
20:25 1007 29.74 837 24.72 8.6 47.5 53 -0.3 31.4 0 0
20:30 1007 29.74 837 24.72 8.4 47 54 -0.3 31.5 0 0
20:35 1008 29.77 837 24.72 8.3 46.9 54 -0.5 31.1 0 0
20:40 1008 29.77 837 24.72 8.3 46.9 55 -0.3 31.5 0 0
20:45 1007 29.74 837 24.72 8.3 47 54 -0.5 31 0 0
20:50 1007 29.74 837 24.72 8.4 47.1 55 -0.1 31.8 0 0
20:55 1008 29.77 837 24.72 8.1 46.6 59 0.6 33 0 0
21:00 1008 29.77 837 24.72 7.7 45.9 61 0.8 33.4 0 0
21:05 1008 29.77 837 24.72 7.4 45.3 68 1.8 35.2 0 0
21:10 1008 29.77 837 24.72 6.8 44.2 70 1.7 35 0 0
21:15 1008 29.77 837 24.72 6.6 43.9 70 1.6 34.9 0 0
21:20 1008 29.77 837 24.72 6.6 43.8 73 2.1 35.8 0 0
21:25 1008 29.77 838 24.75 5.7 42.2 78 2.1 35.8 0 0
21:30 1009 29.8 838 24.75 3.1 37.5 88 1.2 34.2 0 0
21:35 1009 29.8 838 24.75 2 35.5 92 0.8 33.4 0 0
21:40 1009 29.8 838 24.75 1.7 35 93 0.6 33.1 0 0
21:45 1009 29.8 838 24.75 1.6 34.9 93 0.6 33.1 .2 0.008
21:50 1009 29.8 838 24.75 1.6 34.9 93 0.5 33 0 0
21:55 1009 29.8 838 24.75 1.5 34.7 93 0.5 32.9 0 0
22:00 1009 29.8 838 24.75 1.5 34.7 94 0.6 33 0 0
22:05 1009 29.8 838 24.75 1.4 34.6 94 0.5 32.9 .4 0.016
22:10 1009 29.8 838 24.75 1.4 34.6 94 0.5 32.9 .2 0.008
22:15 1009 29.8 838 24.75 1.4 34.6 94 0.5 32.9 .4 0.016
22:20 1009 29.8 839 24.78 1.2 34.1 94 0.3 32.5 .4 0.016
22:25 1010 29.83 839 24.78 0.9 33.6 94 0.1 32.1 .2 0.008
22:30 1010 29.83 839 24.78 0.6 33 94 -0.2 31.6 0 0
22:35 1010 29.83 839 24.78 0.2 32.3 95 -0.5 31.1 0 0
22:40 1010 29.83 839 24.78 -0.1 31.9 96 -0.6 30.9 0 0
22:45 1010 29.83 839 24.78 -0.2 31.6 97 -0.6 30.9 0 0
22:50 1010 29.83 839 24.78 -0.3 31.4 98 -0.7 30.8 0 0
22:55 1010 29.83 839 24.78 -0.4 31.3 98 -0.7 30.8 0 0
23:00 1010 29.83 839 24.78 -0.4 31.3 98 -0.6 30.9 0 0
23:05 1010 29.83 839 24.78 -0.4 31.3 99 -0.6 30.9 0 0
23:10 1010 29.83 839 24.78 -0.4 31.4 99 -0.5 31 0 0
23:15 1010 29.83 839 24.78 -0.3 31.4 99 -0.5 31.1 0 0
23:20 1010 29.83 839 24.78 -0.3 31.4 99 -0.5 31.1 0 0
23:25 1010 29.83 839 24.78 -0.3 31.5 99 -0.4 31.2 0 0
23:30 1010 29.83 839 24.78 -0.2 31.6 99 -0.4 31.3 0 0
23:35 1010 29.83 839 24.78 -0.2 31.6 99 -0.4 31.3 0 0
23:40 1010 29.83 839 24.78 -0.3 31.5 99 -0.4 31.3 0 0
23:45 1010 29.83 839 24.78 -0 32 99 -0.1 31.8 .2 0.008
23:50 1010 29.83 839 24.78 0.3 32.5 99 0.1 32.3 .2 0.008
23:55 1010 29.83 839 24.78 0.6 33.1 97 0.1 32.2 .4 0.016
24:00 1010 29.83 839 24.78 0.7 33.3 94 -0.1 31.8 0 0